sensor_id;sensor_type;location;lat;lon;timestamp;temperature;humidity
27633;DHT22;15046;50.930;13.334;2024-02-04T00:00:47;7.40;99.90
27633;DHT22;15046;50.930;13.334;2024-02-04T00:03:13;7.40;99.90
27633;DHT22;15046;50.930;13.334;2024-02-04T00:05:39;7.40;99.90
27633;DHT22;15046;50.930;13.334;2024-02-04T00:08:05;7.40;99.90
27633;DHT22;15046;50.930;13.334;2024-02-04T00:10:31;7.40;99.90
27633;DHT22;15046;50.930;13.334;2024-02-04T00:12:57;7.40;99.90
27633;DHT22;15046;50.930;13.334;2024-02-04T00:15:23;7.40;99.90
27633;DHT22;15046;50.930;13.334;2024-02-04T00:17:49;7.30;99.90
27633;DHT22;15046;50.930;13.334;2024-02-04T00:20:15;7.30;99.90
27633;DHT22;15046;50.930;13.334;2024-02-04T00:22:41;7.30;99.90
27633;DHT22;15046;50.930;13.334;2024-02-04T00:25:07;7.30;99.90
27633;DHT22;15046;50.930;13.334;2024-02-04T00:27:38;7.40;99.90
27633;DHT22;15046;50.930;13.334;2024-02-04T00:30:04;7.40;99.90
27633;DHT22;15046;50.930;13.334;2024-02-04T00:32:30;7.40;99.90
27633;DHT22;15046;50.930;13.334;2024-02-04T00:34:56;7.40;99.90
27633;DHT22;15046;50.930;13.334;2024-02-04T00:37:22;7.40;99.90
27633;DHT22;15046;50.930;13.334;2024-02-04T00:39:47;7.40;99.90
27633;DHT22;15046;50.930;13.334;2024-02-04T00:42:13;7.40;99.90
27633;DHT22;15046;50.930;13.334;2024-02-04T00:44:39;7.40;99.90
27633;DHT22;15046;50.930;13.334;2024-02-04T00:47:05;7.40;99.90
27633;DHT22;15046;50.930;13.334;2024-02-04T00:49:31;7.40;99.90
27633;DHT22;15046;50.930;13.334;2024-02-04T00:51:56;7.40;99.90
27633;DHT22;15046;50.930;13.334;2024-02-04T00:54:22;7.40;99.90
27633;DHT22;15046;50.930;13.334;2024-02-04T00:56:48;7.40;99.90
27633;DHT22;15046;50.930;13.334;2024-02-04T00:59:14;7.40;99.90
27633;DHT22;15046;50.930;13.334;2024-02-04T01:01:39;7.40;99.90
27633;DHT22;15046;50.930;13.334;2024-02-04T01:04:05;7.40;99.90
27633;DHT22;15046;50.930;13.334;2024-02-04T01:06:31;7.40;99.90
27633;DHT22;15046;50.930;13.334;2024-02-04T01:08:57;7.40;99.90
27633;DHT22;15046;50.930;13.334;2024-02-04T01:11:23;7.40;99.90
27633;DHT22;15046;50.930;13.334;2024-02-04T01:13:49;7.50;99.90
27633;DHT22;15046;50.930;13.334;2024-02-04T01:16:15;7.40;99.90
27633;DHT22;15046;50.930;13.334;2024-02-04T01:18:40;7.40;99.90
27633;DHT22;15046;50.930;13.334;2024-02-04T01:21:06;7.50;99.90
27633;DHT22;15046;50.930;13.334;2024-02-04T01:23:34;7.50;99.90
27633;DHT22;15046;50.930;13.334;2024-02-04T01:26:00;7.40;99.90
27633;DHT22;15046;50.930;13.334;2024-02-04T01:28:25;7.50;99.90
27633;DHT22;15046;50.930;13.334;2024-02-04T01:30:51;7.50;99.90
27633;DHT22;15046;50.930;13.334;2024-02-04T01:33:17;7.40;99.90
27633;DHT22;15046;50.930;13.334;2024-02-04T01:35:43;7.40;99.90
27633;DHT22;15046;50.930;13.334;2024-02-04T01:38:08;7.40;99.90
27633;DHT22;15046;50.930;13.334;2024-02-04T01:40:34;7.40;99.90
27633;DHT22;15046;50.930;13.334;2024-02-04T01:43:00;7.40;99.90
27633;DHT22;15046;50.930;13.334;2024-02-04T01:45:26;7.30;99.90
27633;DHT22;15046;50.930;13.334;2024-02-04T01:47:52;7.30;99.90
27633;DHT22;15046;50.930;13.334;2024-02-04T01:50:18;7.20;99.90
27633;DHT22;15046;50.930;13.334;2024-02-04T01:52:45;7.20;99.90
27633;DHT22;15046;50.930;13.334;2024-02-04T01:55:11;7.10;99.90
27633;DHT22;15046;50.930;13.334;2024-02-04T01:57:37;7.10;99.90
27633;DHT22;15046;50.930;13.334;2024-02-04T02:00:04;7.20;99.90
27633;DHT22;15046;50.930;13.334;2024-02-04T02:02:31;7.20;99.90
27633;DHT22;15046;50.930;13.334;2024-02-04T02:04:59;7.20;99.90
27633;DHT22;15046;50.930;13.334;2024-02-04T02:07:25;7.20;99.90
27633;DHT22;15046;50.930;13.334;2024-02-04T02:09:53;7.30;99.90
27633;DHT22;15046;50.930;13.334;2024-02-04T02:13:14;7.30;99.90
27633;DHT22;15046;50.930;13.334;2024-02-04T02:15:27;7.20;99.90
27633;DHT22;15046;50.930;13.334;2024-02-04T02:17:58;7.30;99.90
27633;DHT22;15046;50.930;13.334;2024-02-04T02:20:40;7.30;99.90
27633;DHT22;15046;50.930;13.334;2024-02-04T02:23:10;7.30;99.90
27633;DHT22;15046;50.930;13.334;2024-02-04T02:25:38;7.30;99.90
27633;DHT22;15046;50.930;13.334;2024-02-04T02:28:04;7.30;99.90
27633;DHT22;15046;50.930;13.334;2024-02-04T02:30:30;7.30;99.90
27633;DHT22;15046;50.930;13.334;2024-02-04T02:32:57;7.30;99.90
27633;DHT22;15046;50.930;13.334;2024-02-04T02:35:23;7.30;99.90
27633;DHT22;15046;50.930;13.334;2024-02-04T02:38:16;7.30;99.90
27633;DHT22;15046;50.930;13.334;2024-02-04T02:41:09;7.30;99.90
27633;DHT22;15046;50.930;13.334;2024-02-04T02:43:34;7.30;99.90
27633;DHT22;15046;50.930;13.334;2024-02-04T02:46:01;7.30;99.90
27633;DHT22;15046;50.930;13.334;2024-02-04T02:48:27;7.30;99.90
27633;DHT22;15046;50.930;13.334;2024-02-04T02:50:53;7.30;99.90
27633;DHT22;15046;50.930;13.334;2024-02-04T02:53:19;7.30;99.90
27633;DHT22;15046;50.930;13.334;2024-02-04T02:55:46;7.30;99.90
27633;DHT22;15046;50.930;13.334;2024-02-04T02:58:12;7.30;99.90
27633;DHT22;15046;50.930;13.334;2024-02-04T03:00:38;7.30;99.90
27633;DHT22;15046;50.930;13.334;2024-02-04T03:03:04;7.30;99.90
27633;DHT22;15046;50.930;13.334;2024-02-04T03:05:30;7.30;99.90
27633;DHT22;15046;50.930;13.334;2024-02-04T03:07:57;7.30;99.90
27633;DHT22;15046;50.930;13.334;2024-02-04T03:10:22;7.30;99.90
27633;DHT22;15046;50.930;13.334;2024-02-04T03:12:48;7.30;99.90
27633;DHT22;15046;50.930;13.334;2024-02-04T03:15:14;7.30;99.90
27633;DHT22;15046;50.930;13.334;2024-02-04T03:17:40;7.30;99.90
27633;DHT22;15046;50.930;13.334;2024-02-04T03:20:06;7.30;99.90
27633;DHT22;15046;50.930;13.334;2024-02-04T03:22:32;7.30;99.90
27633;DHT22;15046;50.930;13.334;2024-02-04T03:24:57;7.30;99.90
27633;DHT22;15046;50.930;13.334;2024-02-04T03:27:23;7.30;99.90
27633;DHT22;15046;50.930;13.334;2024-02-04T03:29:49;7.30;99.90
27633;DHT22;15046;50.930;13.334;2024-02-04T03:32:15;7.30;99.90
27633;DHT22;15046;50.930;13.334;2024-02-04T03:34:44;7.30;99.90
27633;DHT22;15046;50.930;13.334;2024-02-04T03:37:10;7.30;99.90
27633;DHT22;15046;50.930;13.334;2024-02-04T03:39:36;7.30;99.90
27633;DHT22;15046;50.930;13.334;2024-02-04T03:42:01;7.30;99.90
27633;DHT22;15046;50.930;13.334;2024-02-04T03:44:27;7.30;99.90
27633;DHT22;15046;50.930;13.334;2024-02-04T03:46:53;7.30;99.90
27633;DHT22;15046;50.930;13.334;2024-02-04T03:49:19;7.30;99.90
27633;DHT22;15046;50.930;13.334;2024-02-04T03:51:45;7.20;99.90
27633;DHT22;15046;50.930;13.334;2024-02-04T03:54:10;7.20;99.90
27633;DHT22;15046;50.930;13.334;2024-02-04T03:56:36;7.10;99.90
27633;DHT22;15046;50.930;13.334;2024-02-04T03:59:02;7.10;99.90
27633;DHT22;15046;50.930;13.334;2024-02-04T04:01:28;7.10;99.90
27633;DHT22;15046;50.930;13.334;2024-02-04T04:03:54;7.10;99.90
27633;DHT22;15046;50.930;13.334;2024-02-04T04:06:20;7.10;99.90
27633;DHT22;15046;50.930;13.334;2024-02-04T04:08:46;7.10;99.90
27633;DHT22;15046;50.930;13.334;2024-02-04T04:11:11;7.10;99.90
27633;DHT22;15046;50.930;13.334;2024-02-04T04:13:38;7.10;99.90
27633;DHT22;15046;50.930;13.334;2024-02-04T04:16:04;7.10;99.90
27633;DHT22;15046;50.930;13.334;2024-02-04T04:18:30;7.10;99.90
27633;DHT22;15046;50.930;13.334;2024-02-04T04:20:56;7.20;99.90
27633;DHT22;15046;50.930;13.334;2024-02-04T04:23:22;7.10;99.90
27633;DHT22;15046;50.930;13.334;2024-02-04T04:25:48;7.20;99.90
27633;DHT22;15046;50.930;13.334;2024-02-04T04:28:14;7.20;99.90
27633;DHT22;15046;50.930;13.334;2024-02-04T04:30:39;7.20;99.90
27633;DHT22;15046;50.930;13.334;2024-02-04T04:33:05;7.20;99.90
27633;DHT22;15046;50.930;13.334;2024-02-04T04:35:32;7.20;99.90
27633;DHT22;15046;50.930;13.334;2024-02-04T04:37:57;7.20;99.90
27633;DHT22;15046;50.930;13.334;2024-02-04T04:40:23;7.20;99.90
27633;DHT22;15046;50.930;13.334;2024-02-04T04:42:49;7.20;99.90
27633;DHT22;15046;50.930;13.334;2024-02-04T04:45:15;7.20;99.90
27633;DHT22;15046;50.930;13.334;2024-02-04T04:47:41;7.20;99.90
27633;DHT22;15046;50.930;13.334;2024-02-04T04:50:07;7.20;99.90
27633;DHT22;15046;50.930;13.334;2024-02-04T04:52:33;7.20;99.90
27633;DHT22;15046;50.930;13.334;2024-02-04T04:54:59;7.30;99.90
27633;DHT22;15046;50.930;13.334;2024-02-04T04:57:25;7.30;99.90
27633;DHT22;15046;50.930;13.334;2024-02-04T04:59:51;7.30;99.90
27633;DHT22;15046;50.930;13.334;2024-02-04T05:02:17;7.30;99.90
27633;DHT22;15046;50.930;13.334;2024-02-04T05:04:45;7.30;99.90
27633;DHT22;15046;50.930;13.334;2024-02-04T05:07:11;7.30;99.90
27633;DHT22;15046;50.930;13.334;2024-02-04T05:09:37;7.30;99.90
27633;DHT22;15046;50.930;13.334;2024-02-04T05:12:03;7.20;99.90
27633;DHT22;15046;50.930;13.334;2024-02-04T05:14:29;7.20;99.90
27633;DHT22;15046;50.930;13.334;2024-02-04T05:16:55;7.20;99.90
27633;DHT22;15046;50.930;13.334;2024-02-04T05:19:21;7.20;99.90
27633;DHT22;15046;50.930;13.334;2024-02-04T05:21:47;7.30;99.90
27633;DHT22;15046;50.930;13.334;2024-02-04T05:24:12;7.30;99.90
27633;DHT22;15046;50.930;13.334;2024-02-04T05:26:38;7.30;99.90
27633;DHT22;15046;50.930;13.334;2024-02-04T05:29:04;7.30;99.90
27633;DHT22;15046;50.930;13.334;2024-02-04T05:31:30;7.30;99.90
27633;DHT22;15046;50.930;13.334;2024-02-04T05:33:56;7.30;99.90
27633;DHT22;15046;50.930;13.334;2024-02-04T05:36:22;7.30;99.90
27633;DHT22;15046;50.930;13.334;2024-02-04T05:38:48;7.30;99.90
27633;DHT22;15046;50.930;13.334;2024-02-04T05:41:13;7.30;99.90
27633;DHT22;15046;50.930;13.334;2024-02-04T05:43:39;7.30;99.90
27633;DHT22;15046;50.930;13.334;2024-02-04T05:46:05;7.30;99.90
27633;DHT22;15046;50.930;13.334;2024-02-04T05:48:31;7.30;99.90
27633;DHT22;15046;50.930;13.334;2024-02-04T05:50:57;7.30;99.90
27633;DHT22;15046;50.930;13.334;2024-02-04T05:53:26;7.30;99.90
27633;DHT22;15046;50.930;13.334;2024-02-04T05:55:52;7.30;99.90
27633;DHT22;15046;50.930;13.334;2024-02-04T05:58:17;7.30;99.90
27633;DHT22;15046;50.930;13.334;2024-02-04T06:00:43;7.30;99.90
27633;DHT22;15046;50.930;13.334;2024-02-04T06:03:09;7.30;99.90
27633;DHT22;15046;50.930;13.334;2024-02-04T06:05:35;7.30;99.90
27633;DHT22;15046;50.930;13.334;2024-02-04T06:08:01;7.30;99.90
27633;DHT22;15046;50.930;13.334;2024-02-04T06:10:26;7.20;99.90
27633;DHT22;15046;50.930;13.334;2024-02-04T06:12:52;7.30;99.90
27633;DHT22;15046;50.930;13.334;2024-02-04T06:15:18;7.30;99.90
27633;DHT22;15046;50.930;13.334;2024-02-04T06:17:46;7.30;99.90
27633;DHT22;15046;50.930;13.334;2024-02-04T06:20:12;7.30;99.90
27633;DHT22;15046;50.930;13.334;2024-02-04T06:22:38;7.30;99.90
27633;DHT22;15046;50.930;13.334;2024-02-04T06:25:04;7.20;99.90
27633;DHT22;15046;50.930;13.334;2024-02-04T06:27:30;7.20;99.90
27633;DHT22;15046;50.930;13.334;2024-02-04T06:29:56;7.30;99.90
27633;DHT22;15046;50.930;13.334;2024-02-04T06:32:22;7.20;99.90
27633;DHT22;15046;50.930;13.334;2024-02-04T06:34:50;7.30;99.90
27633;DHT22;15046;50.930;13.334;2024-02-04T06:37:16;7.30;99.90
27633;DHT22;15046;50.930;13.334;2024-02-04T06:39:43;7.30;99.90
27633;DHT22;15046;50.930;13.334;2024-02-04T06:42:09;7.30;99.90
27633;DHT22;15046;50.930;13.334;2024-02-04T06:44:34;7.30;99.90
27633;DHT22;15046;50.930;13.334;2024-02-04T06:47:00;7.30;99.90
27633;DHT22;15046;50.930;13.334;2024-02-04T06:49:26;7.30;99.90
27633;DHT22;15046;50.930;13.334;2024-02-04T06:51:52;7.40;99.90
27633;DHT22;15046;50.930;13.334;2024-02-04T06:54:25;7.40;99.90
27633;DHT22;15046;50.930;13.334;2024-02-04T06:56:51;7.40;99.90
27633;DHT22;15046;50.930;13.334;2024-02-04T06:59:18;7.40;99.90
27633;DHT22;15046;50.930;13.334;2024-02-04T07:01:44;7.40;99.90
27633;DHT22;15046;50.930;13.334;2024-02-04T07:04:09;7.40;99.90
27633;DHT22;15046;50.930;13.334;2024-02-04T07:06:35;7.40;99.90
27633;DHT22;15046;50.930;13.334;2024-02-04T07:09:04;7.40;99.90
27633;DHT22;15046;50.930;13.334;2024-02-04T07:11:31;7.50;99.90
27633;DHT22;15046;50.930;13.334;2024-02-04T07:14:00;7.50;99.90
27633;DHT22;15046;50.930;13.334;2024-02-04T07:16:26;7.50;99.90
27633;DHT22;15046;50.930;13.334;2024-02-04T07:18:52;7.50;99.90
27633;DHT22;15046;50.930;13.334;2024-02-04T07:21:18;7.50;99.90
27633;DHT22;15046;50.930;13.334;2024-02-04T07:23:44;7.50;99.90
27633;DHT22;15046;50.930;13.334;2024-02-04T07:26:11;7.60;99.90
27633;DHT22;15046;50.930;13.334;2024-02-04T07:28:37;7.60;99.90
27633;DHT22;15046;50.930;13.334;2024-02-04T07:31:03;7.60;99.90
27633;DHT22;15046;50.930;13.334;2024-02-04T07:33:29;7.60;99.90
27633;DHT22;15046;50.930;13.334;2024-02-04T07:35:55;7.60;99.90
27633;DHT22;15046;50.930;13.334;2024-02-04T07:38:23;7.60;99.90
27633;DHT22;15046;50.930;13.334;2024-02-04T07:40:49;7.60;99.90
27633;DHT22;15046;50.930;13.334;2024-02-04T07:43:15;7.70;99.90
27633;DHT22;15046;50.930;13.334;2024-02-04T07:45:41;7.70;99.90
27633;DHT22;15046;50.930;13.334;2024-02-04T07:48:07;7.70;99.90
27633;DHT22;15046;50.930;13.334;2024-02-04T07:50:35;7.70;99.90
27633;DHT22;15046;50.930;13.334;2024-02-04T07:53:01;7.70;99.90
27633;DHT22;15046;50.930;13.334;2024-02-04T07:55:27;7.70;99.90
27633;DHT22;15046;50.930;13.334;2024-02-04T07:57:53;7.70;99.90
27633;DHT22;15046;50.930;13.334;2024-02-04T08:00:19;7.70;99.90
27633;DHT22;15046;50.930;13.334;2024-02-04T08:02:45;7.80;99.90
27633;DHT22;15046;50.930;13.334;2024-02-04T08:05:13;7.80;99.90
27633;DHT22;15046;50.930;13.334;2024-02-04T08:07:39;7.80;99.90
27633;DHT22;15046;50.930;13.334;2024-02-04T08:10:05;7.80;99.90
27633;DHT22;15046;50.930;13.334;2024-02-04T08:12:32;7.80;99.90
27633;DHT22;15046;50.930;13.334;2024-02-04T08:14:58;7.80;99.90
27633;DHT22;15046;50.930;13.334;2024-02-04T08:17:24;7.80;99.90
27633;DHT22;15046;50.930;13.334;2024-02-04T08:19:58;7.90;99.90
27633;DHT22;15046;50.930;13.334;2024-02-04T08:22:24;7.90;99.90
27633;DHT22;15046;50.930;13.334;2024-02-04T08:24:50;7.90;99.90
27633;DHT22;15046;50.930;13.334;2024-02-04T08:27:16;7.90;99.90
27633;DHT22;15046;50.930;13.334;2024-02-04T08:29:43;7.90;99.90
27633;DHT22;15046;50.930;13.334;2024-02-04T08:32:12;7.90;99.90
27633;DHT22;15046;50.930;13.334;2024-02-04T08:34:39;7.90;99.90
27633;DHT22;15046;50.930;13.334;2024-02-04T08:37:04;8.00;99.90
27633;DHT22;15046;50.930;13.334;2024-02-04T08:39:30;7.90;99.90
27633;DHT22;15046;50.930;13.334;2024-02-04T08:41:56;7.90;99.90
27633;DHT22;15046;50.930;13.334;2024-02-04T08:44:22;7.90;99.90
27633;DHT22;15046;50.930;13.334;2024-02-04T08:46:48;7.90;99.90
27633;DHT22;15046;50.930;13.334;2024-02-04T08:49:13;7.90;99.90
27633;DHT22;15046;50.930;13.334;2024-02-04T08:51:39;7.90;99.90
27633;DHT22;15046;50.930;13.334;2024-02-04T08:54:05;8.00;99.90
27633;DHT22;15046;50.930;13.334;2024-02-04T08:56:31;8.00;99.90
27633;DHT22;15046;50.930;13.334;2024-02-04T08:58:57;8.00;99.90
27633;DHT22;15046;50.930;13.334;2024-02-04T09:01:25;7.90;99.90
27633;DHT22;15046;50.930;13.334;2024-02-04T09:03:52;7.90;99.90
27633;DHT22;15046;50.930;13.334;2024-02-04T09:06:18;8.00;99.90
27633;DHT22;15046;50.930;13.334;2024-02-04T09:08:46;8.00;99.90
27633;DHT22;15046;50.930;13.334;2024-02-04T09:11:12;8.00;99.90
27633;DHT22;15046;50.930;13.334;2024-02-04T09:13:44;8.00;99.90
27633;DHT22;15046;50.930;13.334;2024-02-04T09:16:12;8.00;99.90
27633;DHT22;15046;50.930;13.334;2024-02-04T09:18:38;8.00;99.90
27633;DHT22;15046;50.930;13.334;2024-02-04T09:21:04;8.00;99.90
27633;DHT22;15046;50.930;13.334;2024-02-04T09:23:29;8.00;99.90
27633;DHT22;15046;50.930;13.334;2024-02-04T09:25:55;8.10;99.90
27633;DHT22;15046;50.930;13.334;2024-02-04T09:28:21;8.10;99.90
27633;DHT22;15046;50.930;13.334;2024-02-04T09:30:47;8.10;99.90
27633;DHT22;15046;50.930;13.334;2024-02-04T09:33:16;8.10;99.90
27633;DHT22;15046;50.930;13.334;2024-02-04T09:35:43;8.10;99.90
27633;DHT22;15046;50.930;13.334;2024-02-04T09:38:11;8.10;99.90
27633;DHT22;15046;50.930;13.334;2024-02-04T09:40:37;8.10;99.90
27633;DHT22;15046;50.930;13.334;2024-02-04T09:43:03;8.10;99.90
27633;DHT22;15046;50.930;13.334;2024-02-04T09:45:29;8.20;99.90
27633;DHT22;15046;50.930;13.334;2024-02-04T09:47:56;8.20;99.90
27633;DHT22;15046;50.930;13.334;2024-02-04T09:50:24;8.30;99.90
27633;DHT22;15046;50.930;13.334;2024-02-04T09:52:50;8.30;99.90
27633;DHT22;15046;50.930;13.334;2024-02-04T09:55:18;8.30;99.90
27633;DHT22;15046;50.930;13.334;2024-02-04T09:57:46;8.30;99.90
27633;DHT22;15046;50.930;13.334;2024-02-04T10:00:13;8.40;99.90
27633;DHT22;15046;50.930;13.334;2024-02-04T10:02:42;8.40;99.90
27633;DHT22;15046;50.930;13.334;2024-02-04T10:05:08;8.30;99.90
27633;DHT22;15046;50.930;13.334;2024-02-04T10:07:36;8.30;99.90
27633;DHT22;15046;50.930;13.334;2024-02-04T10:10:05;8.30;99.90
27633;DHT22;15046;50.930;13.334;2024-02-04T10:12:31;8.30;99.90
27633;DHT22;15046;50.930;13.334;2024-02-04T10:14:58;8.30;99.90
27633;DHT22;15046;50.930;13.334;2024-02-04T10:17:24;8.30;99.90
27633;DHT22;15046;50.930;13.334;2024-02-04T10:19:50;8.20;99.90
27633;DHT22;15046;50.930;13.334;2024-02-04T10:22:16;8.20;99.90
27633;DHT22;15046;50.930;13.334;2024-02-04T10:24:43;8.20;99.90
27633;DHT22;15046;50.930;13.334;2024-02-04T10:27:12;8.10;99.90
27633;DHT22;15046;50.930;13.334;2024-02-04T10:29:37;8.10;99.90
27633;DHT22;15046;50.930;13.334;2024-02-04T10:32:04;8.10;99.90
27633;DHT22;15046;50.930;13.334;2024-02-04T10:34:30;8.10;99.90
27633;DHT22;15046;50.930;13.334;2024-02-04T10:36:57;8.10;99.90
27633;DHT22;15046;50.930;13.334;2024-02-04T10:39:22;8.10;99.90
27633;DHT22;15046;50.930;13.334;2024-02-04T10:41:52;8.10;99.90
27633;DHT22;15046;50.930;13.334;2024-02-04T10:44:22;8.10;99.90
27633;DHT22;15046;50.930;13.334;2024-02-04T10:46:52;8.10;99.90
27633;DHT22;15046;50.930;13.334;2024-02-04T10:49:20;8.00;99.90
27633;DHT22;15046;50.930;13.334;2024-02-04T10:51:47;8.00;99.90
27633;DHT22;15046;50.930;13.334;2024-02-04T10:54:15;8.00;99.90
27633;DHT22;15046;50.930;13.334;2024-02-04T10:56:46;8.00;99.90
27633;DHT22;15046;50.930;13.334;2024-02-04T10:59:18;8.00;99.90
27633;DHT22;15046;50.930;13.334;2024-02-04T11:01:45;8.00;99.90
27633;DHT22;15046;50.930;13.334;2024-02-04T11:04:14;8.00;99.90
27633;DHT22;15046;50.930;13.334;2024-02-04T11:06:43;8.00;99.90
27633;DHT22;15046;50.930;13.334;2024-02-04T11:09:09;8.00;99.90
27633;DHT22;15046;50.930;13.334;2024-02-04T11:11:37;8.00;99.90
27633;DHT22;15046;50.930;13.334;2024-02-04T11:14:05;8.10;99.90
27633;DHT22;15046;50.930;13.334;2024-02-04T11:22:08;8.20;99.90
27633;DHT22;15046;50.930;13.334;2024-02-04T11:27:04;8.30;99.90
27633;DHT22;15046;50.930;13.334;2024-02-04T11:29:30;8.30;99.90
27633;DHT22;15046;50.930;13.334;2024-02-04T11:31:57;8.20;99.90
27633;DHT22;15046;50.930;13.334;2024-02-04T11:34:23;8.10;99.90
27633;DHT22;15046;50.930;13.334;2024-02-04T11:36:50;8.20;99.90
27633;DHT22;15046;50.930;13.334;2024-02-04T11:39:19;8.20;99.90
27633;DHT22;15046;50.930;13.334;2024-02-04T11:41:50;8.20;99.90
27633;DHT22;15046;50.930;13.334;2024-02-04T11:44:23;8.10;99.90
27633;DHT22;15046;50.930;13.334;2024-02-04T11:46:52;8.10;99.90
27633;DHT22;15046;50.930;13.334;2024-02-04T11:49:18;8.10;99.90
27633;DHT22;15046;50.930;13.334;2024-02-04T11:51:48;8.10;99.90
27633;DHT22;15046;50.930;13.334;2024-02-04T11:54:18;8.10;99.90
27633;DHT22;15046;50.930;13.334;2024-02-04T11:56:53;8.20;99.90
27633;DHT22;15046;50.930;13.334;2024-02-04T11:59:23;8.20;99.90
27633;DHT22;15046;50.930;13.334;2024-02-04T12:01:56;8.20;99.90
27633;DHT22;15046;50.930;13.334;2024-02-04T12:04:24;8.20;99.90
27633;DHT22;15046;50.930;13.334;2024-02-04T12:06:53;8.20;99.90
27633;DHT22;15046;50.930;13.334;2024-02-04T12:09:19;8.20;99.90
27633;DHT22;15046;50.930;13.334;2024-02-04T12:11:46;8.30;99.90
27633;DHT22;15046;50.930;13.334;2024-02-04T12:14:13;8.30;99.90
27633;DHT22;15046;50.930;13.334;2024-02-04T12:16:51;8.40;99.90
27633;DHT22;15046;50.930;13.334;2024-02-04T12:19:19;8.40;99.90
27633;DHT22;15046;50.930;13.334;2024-02-04T12:21:44;8.50;99.90
27633;DHT22;15046;50.930;13.334;2024-02-04T12:24:11;8.50;99.90
27633;DHT22;15046;50.930;13.334;2024-02-04T12:26:40;8.50;99.90
27633;DHT22;15046;50.930;13.334;2024-02-04T12:29:06;8.40;99.90
27633;DHT22;15046;50.930;13.334;2024-02-04T12:31:32;8.40;99.90
27633;DHT22;15046;50.930;13.334;2024-02-04T12:34:00;8.40;99.90
27633;DHT22;15046;50.930;13.334;2024-02-04T12:36:29;8.30;99.90
27633;DHT22;15046;50.930;13.334;2024-02-04T12:39:15;8.30;99.90
27633;DHT22;15046;50.930;13.334;2024-02-04T12:41:41;8.30;99.90
27633;DHT22;15046;50.930;13.334;2024-02-04T12:44:07;8.20;99.90
27633;DHT22;15046;50.930;13.334;2024-02-04T12:46:33;8.20;99.90
27633;DHT22;15046;50.930;13.334;2024-02-04T12:48:59;8.20;99.90
27633;DHT22;15046;50.930;13.334;2024-02-04T12:51:29;8.20;99.90
27633;DHT22;15046;50.930;13.334;2024-02-04T12:54:07;8.20;99.90
27633;DHT22;15046;50.930;13.334;2024-02-04T12:56:53;8.20;99.90
27633;DHT22;15046;50.930;13.334;2024-02-04T12:59:26;8.20;99.90
27633;DHT22;15046;50.930;13.334;2024-02-04T13:02:01;8.20;99.90
27633;DHT22;15046;50.930;13.334;2024-02-04T13:04:40;8.20;99.90
27633;DHT22;15046;50.930;13.334;2024-02-04T13:07:11;8.20;99.90
27633;DHT22;15046;50.930;13.334;2024-02-04T13:09:40;8.20;99.90
27633;DHT22;15046;50.930;13.334;2024-02-04T13:12:07;8.20;99.90
27633;DHT22;15046;50.930;13.334;2024-02-04T13:14:34;8.30;99.90
27633;DHT22;15046;50.930;13.334;2024-02-04T13:17:02;8.20;99.90
27633;DHT22;15046;50.930;13.334;2024-02-04T13:19:37;8.30;99.90
27633;DHT22;15046;50.930;13.334;2024-02-04T13:22:06;8.30;99.90
27633;DHT22;15046;50.930;13.334;2024-02-04T13:24:33;8.40;99.90
27633;DHT22;15046;50.930;13.334;2024-02-04T13:27:03;8.50;99.90
27633;DHT22;15046;50.930;13.334;2024-02-04T13:29:30;8.60;99.90
27633;DHT22;15046;50.930;13.334;2024-02-04T13:31:55;8.60;99.90
27633;DHT22;15046;50.930;13.334;2024-02-04T13:34:21;8.60;99.90
27633;DHT22;15046;50.930;13.334;2024-02-04T13:36:47;8.70;99.90
27633;DHT22;15046;50.930;13.334;2024-02-04T13:39:14;8.70;99.90
27633;DHT22;15046;50.930;13.334;2024-02-04T13:41:44;8.80;99.90
27633;DHT22;15046;50.930;13.334;2024-02-04T13:44:10;8.80;99.90
27633;DHT22;15046;50.930;13.334;2024-02-04T13:46:36;8.80;99.90
27633;DHT22;15046;50.930;13.334;2024-02-04T13:49:02;8.80;99.90
27633;DHT22;15046;50.930;13.334;2024-02-04T13:51:29;8.90;99.90
27633;DHT22;15046;50.930;13.334;2024-02-04T13:53:55;8.80;99.90
27633;DHT22;15046;50.930;13.334;2024-02-04T13:56:21;8.90;99.90
27633;DHT22;15046;50.930;13.334;2024-02-04T13:58:47;8.90;99.90
27633;DHT22;15046;50.930;13.334;2024-02-04T14:01:13;8.80;99.90
27633;DHT22;15046;50.930;13.334;2024-02-04T14:03:41;8.90;99.90
27633;DHT22;15046;50.930;13.334;2024-02-04T14:06:06;8.90;99.90
27633;DHT22;15046;50.930;13.334;2024-02-04T14:08:33;8.90;99.90
27633;DHT22;15046;50.930;13.334;2024-02-04T14:10:58;8.90;99.90
27633;DHT22;15046;50.930;13.334;2024-02-04T14:13:24;8.90;99.90
27633;DHT22;15046;50.930;13.334;2024-02-04T14:15:50;8.80;99.90
27633;DHT22;15046;50.930;13.334;2024-02-04T14:18:15;8.80;99.90
27633;DHT22;15046;50.930;13.334;2024-02-04T14:20:41;8.80;99.90
27633;DHT22;15046;50.930;13.334;2024-02-04T14:23:07;8.80;99.90
27633;DHT22;15046;50.930;13.334;2024-02-04T14:25:34;8.80;99.90
27633;DHT22;15046;50.930;13.334;2024-02-04T14:28:00;8.80;99.90
27633;DHT22;15046;50.930;13.334;2024-02-04T14:30:26;8.80;99.90
27633;DHT22;15046;50.930;13.334;2024-02-04T14:32:52;8.80;99.90
27633;DHT22;15046;50.930;13.334;2024-02-04T14:35:17;8.80;99.90
27633;DHT22;15046;50.930;13.334;2024-02-04T14:37:43;8.80;99.90
27633;DHT22;15046;50.930;13.334;2024-02-04T14:40:10;8.70;99.90
27633;DHT22;15046;50.930;13.334;2024-02-04T14:42:36;8.70;99.90
27633;DHT22;15046;50.930;13.334;2024-02-04T14:45:01;8.70;99.90
27633;DHT22;15046;50.930;13.334;2024-02-04T14:47:28;8.70;99.90
27633;DHT22;15046;50.930;13.334;2024-02-04T14:49:54;8.60;99.90
27633;DHT22;15046;50.930;13.334;2024-02-04T14:52:20;8.60;99.90
27633;DHT22;15046;50.930;13.334;2024-02-04T14:54:47;8.60;99.90
27633;DHT22;15046;50.930;13.334;2024-02-04T14:57:13;8.50;99.90
27633;DHT22;15046;50.930;13.334;2024-02-04T14:59:40;8.40;99.90
27633;DHT22;15046;50.930;13.334;2024-02-04T15:02:09;8.30;99.90
27633;DHT22;15046;50.930;13.334;2024-02-04T15:04:35;8.30;99.90
27633;DHT22;15046;50.930;13.334;2024-02-04T15:07:08;8.20;99.90
27633;DHT22;15046;50.930;13.334;2024-02-04T15:09:41;8.10;99.90
27633;DHT22;15046;50.930;13.334;2024-02-04T15:12:20;8.10;99.90
27633;DHT22;15046;50.930;13.334;2024-02-04T15:14:46;8.00;99.90
27633;DHT22;15046;50.930;13.334;2024-02-04T15:17:20;8.00;99.90
27633;DHT22;15046;50.930;13.334;2024-02-04T15:19:51;8.00;99.90
27633;DHT22;15046;50.930;13.334;2024-02-04T15:22:17;7.90;99.90
27633;DHT22;15046;50.930;13.334;2024-02-04T15:24:43;7.90;99.90
27633;DHT22;15046;50.930;13.334;2024-02-04T15:27:09;7.90;99.90
27633;DHT22;15046;50.930;13.334;2024-02-04T15:29:36;7.90;99.90
27633;DHT22;15046;50.930;13.334;2024-02-04T15:32:03;7.80;99.90
27633;DHT22;15046;50.930;13.334;2024-02-04T15:34:41;7.80;99.90
27633;DHT22;15046;50.930;13.334;2024-02-04T15:37:10;7.80;99.90